sensor_id;sensor_type;location;lat;lon;timestamp;temperature;humidity
22145;DHT22;11238;48.730;11.566;2022-11-15T00:02:16;3.20;99.90
22145;DHT22;11238;48.730;11.566;2022-11-15T00:05:00;3.20;99.90
22145;DHT22;11238;48.730;11.566;2022-11-15T00:07:46;3.30;99.90
22145;DHT22;11238;48.730;11.566;2022-11-15T00:10:31;3.20;99.90
22145;DHT22;11238;48.730;11.566;2022-11-15T00:13:15;3.20;99.90
22145;DHT22;11238;48.730;11.566;2022-11-15T00:16:01;3.20;99.90
22145;DHT22;11238;48.730;11.566;2022-11-15T00:18:46;3.10;99.90
22145;DHT22;11238;48.730;11.566;2022-11-15T00:21:30;3.10;99.90
22145;DHT22;11238;48.730;11.566;2022-11-15T00:24:15;3.10;99.90
22145;DHT22;11238;48.730;11.566;2022-11-15T00:27:00;3.10;99.90
22145;DHT22;11238;48.730;11.566;2022-11-15T00:29:44;3.20;99.90
22145;DHT22;11238;48.730;11.566;2022-11-15T00:32:32;3.30;99.90
22145;DHT22;11238;48.730;11.566;2022-11-15T00:35:17;3.20;99.90
22145;DHT22;11238;48.730;11.566;2022-11-15T00:38:02;3.20;99.90
22145;DHT22;11238;48.730;11.566;2022-11-15T00:40:47;3.20;99.90
22145;DHT22;11238;48.730;11.566;2022-11-15T00:43:32;3.20;99.90
22145;DHT22;11238;48.730;11.566;2022-11-15T00:46:19;3.20;99.90
22145;DHT22;11238;48.730;11.566;2022-11-15T00:49:03;3.30;99.90
22145;DHT22;11238;48.730;11.566;2022-11-15T00:51:48;3.30;99.90
22145;DHT22;11238;48.730;11.566;2022-11-15T00:54:32;3.20;99.90
22145;DHT22;11238;48.730;11.566;2022-11-15T00:57:16;3.20;99.90
22145;DHT22;11238;48.730;11.566;2022-11-15T01:00:01;3.30;99.90
22145;DHT22;11238;48.730;11.566;2022-11-15T01:02:45;3.30;99.90
22145;DHT22;11238;48.730;11.566;2022-11-15T01:05:30;3.20;99.90
22145;DHT22;11238;48.730;11.566;2022-11-15T01:08:16;3.20;99.90
22145;DHT22;11238;48.730;11.566;2022-11-15T01:11:02;3.20;99.90
22145;DHT22;11238;48.730;11.566;2022-11-15T01:13:47;3.10;99.90
22145;DHT22;11238;48.730;11.566;2022-11-15T01:16:32;3.10;99.90
22145;DHT22;11238;48.730;11.566;2022-11-15T01:19:17;3.10;99.90
22145;DHT22;11238;48.730;11.566;2022-11-15T01:22:02;3.10;99.90
22145;DHT22;11238;48.730;11.566;2022-11-15T01:24:49;3.10;99.90
22145;DHT22;11238;48.730;11.566;2022-11-15T01:27:33;3.10;99.90
22145;DHT22;11238;48.730;11.566;2022-11-15T01:30:18;3.10;99.90
22145;DHT22;11238;48.730;11.566;2022-11-15T01:33:03;3.10;99.90
22145;DHT22;11238;48.730;11.566;2022-11-15T01:35:47;3.10;99.90
22145;DHT22;11238;48.730;11.566;2022-11-15T01:38:32;3.10;99.90
22145;DHT22;11238;48.730;11.566;2022-11-15T01:41:19;3.00;99.90
22145;DHT22;11238;48.730;11.566;2022-11-15T01:47:32;3.00;99.90
22145;DHT22;11238;48.730;11.566;2022-11-15T01:50:23;3.00;99.90
22145;DHT22;11238;48.730;11.566;2022-11-15T01:53:09;3.00;99.90
22145;DHT22;11238;48.730;11.566;2022-11-15T01:55:55;3.00;99.90
22145;DHT22;11238;48.730;11.566;2022-11-15T01:58:40;3.10;99.90
22145;DHT22;11238;48.730;11.566;2022-11-15T02:01:26;3.10;99.90
22145;DHT22;11238;48.730;11.566;2022-11-15T02:04:32;3.10;99.90
22145;DHT22;11238;48.730;11.566;2022-11-15T02:07:20;3.10;99.90
22145;DHT22;11238;48.730;11.566;2022-11-15T02:10:12;3.00;99.90
22145;DHT22;11238;48.730;11.566;2022-11-15T02:12:59;3.00;99.90
22145;DHT22;11238;48.730;11.566;2022-11-15T02:29:06;3.00;99.90
22145;DHT22;11238;48.730;11.566;2022-11-15T02:32:16;3.00;99.90
22145;DHT22;11238;48.730;11.566;2022-11-15T02:38:21;2.90;99.90
22145;DHT22;11238;48.730;11.566;2022-11-15T02:41:11;2.90;99.90
22145;DHT22;11238;48.730;11.566;2022-11-15T02:44:52;2.80;99.90
22145;DHT22;11238;48.730;11.566;2022-11-15T02:47:33;2.80;99.90
22145;DHT22;11238;48.730;11.566;2022-11-15T02:50:25;2.70;99.90
22145;DHT22;11238;48.730;11.566;2022-11-15T02:53:09;2.70;99.90
22145;DHT22;11238;48.730;11.566;2022-11-15T02:55:55;2.70;99.90
22145;DHT22;11238;48.730;11.566;2022-11-15T03:05:18;2.60;99.90
22145;DHT22;11238;48.730;11.566;2022-11-15T03:11:17;2.50;99.90
22145;DHT22;11238;48.730;11.566;2022-11-15T03:19:54;2.50;99.90
22145;DHT22;11238;48.730;11.566;2022-11-15T03:22:44;2.50;99.90
22145;DHT22;11238;48.730;11.566;2022-11-15T03:25:32;2.50;99.90
22145;DHT22;11238;48.730;11.566;2022-11-15T03:28:25;2.50;99.90
22145;DHT22;11238;48.730;11.566;2022-11-15T03:31:14;2.50;99.90
22145;DHT22;11238;48.730;11.566;2022-11-15T03:34:31;2.50;99.90
22145;DHT22;11238;48.730;11.566;2022-11-15T03:37:17;2.50;99.90
22145;DHT22;11238;48.730;11.566;2022-11-15T03:40:05;2.50;99.90
22145;DHT22;11238;48.730;11.566;2022-11-15T03:43:16;2.50;99.90
22145;DHT22;11238;48.730;11.566;2022-11-15T03:49:34;2.40;99.90
22145;DHT22;11238;48.730;11.566;2022-11-15T03:52:21;2.30;99.90
22145;DHT22;11238;48.730;11.566;2022-11-15T03:55:08;2.30;99.90
22145;DHT22;11238;48.730;11.566;2022-11-15T03:57:55;2.40;99.90
22145;DHT22;11238;48.730;11.566;2022-11-15T04:00:41;2.40;99.90
22145;DHT22;11238;48.730;11.566;2022-11-15T04:03:25;2.30;99.90
22145;DHT22;11238;48.730;11.566;2022-11-15T04:06:10;2.30;99.90
22145;DHT22;11238;48.730;11.566;2022-11-15T04:08:55;2.30;99.90
22145;DHT22;11238;48.730;11.566;2022-11-15T04:11:39;2.10;99.90
22145;DHT22;11238;48.730;11.566;2022-11-15T04:14:23;2.10;99.90
22145;DHT22;11238;48.730;11.566;2022-11-15T04:17:08;2.20;99.90
22145;DHT22;11238;48.730;11.566;2022-11-15T04:19:52;2.20;99.90
22145;DHT22;11238;48.730;11.566;2022-11-15T04:22:57;2.10;99.90
22145;DHT22;11238;48.730;11.566;2022-11-15T04:26:06;2.10;99.90
22145;DHT22;11238;48.730;11.566;2022-11-15T04:28:52;2.10;99.90
22145;DHT22;11238;48.730;11.566;2022-11-15T04:31:56;2.10;99.90
22145;DHT22;11238;48.730;11.566;2022-11-15T04:34:40;2.10;99.90
22145;DHT22;11238;48.730;11.566;2022-11-15T04:37:25;2.10;99.90
22145;DHT22;11238;48.730;11.566;2022-11-15T04:40:09;2.10;99.90
22145;DHT22;11238;48.730;11.566;2022-11-15T04:42:54;2.00;99.90
22145;DHT22;11238;48.730;11.566;2022-11-15T04:45:38;2.00;99.90
22145;DHT22;11238;48.730;11.566;2022-11-15T04:48:23;2.00;99.90
22145;DHT22;11238;48.730;11.566;2022-11-15T04:51:07;2.00;99.90
22145;DHT22;11238;48.730;11.566;2022-11-15T04:53:51;2.00;99.90
22145;DHT22;11238;48.730;11.566;2022-11-15T04:56:36;1.90;99.90
22145;DHT22;11238;48.730;11.566;2022-11-15T04:59:21;1.90;99.90
22145;DHT22;11238;48.730;11.566;2022-11-15T05:02:05;1.80;99.90
22145;DHT22;11238;48.730;11.566;2022-11-15T05:04:49;1.80;99.90
22145;DHT22;11238;48.730;11.566;2022-11-15T05:07:33;1.80;99.90
22145;DHT22;11238;48.730;11.566;2022-11-15T05:10:18;1.80;99.90
22145;DHT22;11238;48.730;11.566;2022-11-15T05:13:02;1.70;99.90
22145;DHT22;11238;48.730;11.566;2022-11-15T05:15:47;1.80;99.90
22145;DHT22;11238;48.730;11.566;2022-11-15T05:18:32;1.70;99.90
22145;DHT22;11238;48.730;11.566;2022-11-15T05:21:16;1.80;99.90
22145;DHT22;11238;48.730;11.566;2022-11-15T05:24:01;1.80;99.90
22145;DHT22;11238;48.730;11.566;2022-11-15T05:26:45;1.80;99.90
22145;DHT22;11238;48.730;11.566;2022-11-15T05:29:29;1.80;99.90
22145;DHT22;11238;48.730;11.566;2022-11-15T05:32:14;1.80;99.90
22145;DHT22;11238;48.730;11.566;2022-11-15T05:34:59;1.80;99.90
22145;DHT22;11238;48.730;11.566;2022-11-15T05:37:44;1.90;99.90
22145;DHT22;11238;48.730;11.566;2022-11-15T05:40:29;1.90;99.90
22145;DHT22;11238;48.730;11.566;2022-11-15T05:43:14;1.90;99.90
22145;DHT22;11238;48.730;11.566;2022-11-15T05:45:59;1.80;99.90
22145;DHT22;11238;48.730;11.566;2022-11-15T05:48:49;1.80;99.90
22145;DHT22;11238;48.730;11.566;2022-11-15T05:51:34;1.80;99.90
22145;DHT22;11238;48.730;11.566;2022-11-15T05:54:20;1.80;99.90
22145;DHT22;11238;48.730;11.566;2022-11-15T05:57:07;1.80;99.90
22145;DHT22;11238;48.730;11.566;2022-11-15T05:59:51;1.70;99.90
22145;DHT22;11238;48.730;11.566;2022-11-15T06:02:36;1.60;99.90
22145;DHT22;11238;48.730;11.566;2022-11-15T06:05:20;1.70;99.90
22145;DHT22;11238;48.730;11.566;2022-11-15T06:08:04;1.60;99.90
22145;DHT22;11238;48.730;11.566;2022-11-15T06:10:49;1.70;99.90
22145;DHT22;11238;48.730;11.566;2022-11-15T06:13:33;1.80;99.90
22145;DHT22;11238;48.730;11.566;2022-11-15T06:16:18;1.70;99.90
22145;DHT22;11238;48.730;11.566;2022-11-15T06:19:02;1.70;99.90
22145;DHT22;11238;48.730;11.566;2022-11-15T06:21:47;1.70;99.90
22145;DHT22;11238;48.730;11.566;2022-11-15T06:24:31;1.70;99.90
22145;DHT22;11238;48.730;11.566;2022-11-15T06:27:16;1.70;99.90
22145;DHT22;11238;48.730;11.566;2022-11-15T06:30:01;1.70;99.90
22145;DHT22;11238;48.730;11.566;2022-11-15T06:32:45;1.70;99.90
22145;DHT22;11238;48.730;11.566;2022-11-15T06:35:32;1.70;99.90
22145;DHT22;11238;48.730;11.566;2022-11-15T06:38:17;1.60;99.90
22145;DHT22;11238;48.730;11.566;2022-11-15T06:41:07;1.60;99.90
22145;DHT22;11238;48.730;11.566;2022-11-15T06:43:51;1.60;99.90
22145;DHT22;11238;48.730;11.566;2022-11-15T06:46:36;1.70;99.90
22145;DHT22;11238;48.730;11.566;2022-11-15T06:49:21;1.70;99.90
22145;DHT22;11238;48.730;11.566;2022-11-15T06:52:06;1.70;99.90
22145;DHT22;11238;48.730;11.566;2022-11-15T06:54:50;1.70;99.90
22145;DHT22;11238;48.730;11.566;2022-11-15T06:57:36;1.70;99.90
22145;DHT22;11238;48.730;11.566;2022-11-15T07:00:21;1.50;99.90
22145;DHT22;11238;48.730;11.566;2022-11-15T07:03:06;1.40;99.90
22145;DHT22;11238;48.730;11.566;2022-11-15T07:05:52;1.20;99.90
22145;DHT22;11238;48.730;11.566;2022-11-15T07:08:37;1.20;99.90
22145;DHT22;11238;48.730;11.566;2022-11-15T07:11:21;1.20;99.90
22145;DHT22;11238;48.730;11.566;2022-11-15T07:14:06;1.30;99.90
22145;DHT22;11238;48.730;11.566;2022-11-15T07:16:50;1.30;99.90
22145;DHT22;11238;48.730;11.566;2022-11-15T07:19:35;1.30;99.90
22145;DHT22;11238;48.730;11.566;2022-11-15T07:22:20;1.30;99.90
22145;DHT22;11238;48.730;11.566;2022-11-15T07:25:04;1.30;99.90
22145;DHT22;11238;48.730;11.566;2022-11-15T07:27:56;1.50;99.90
22145;DHT22;11238;48.730;11.566;2022-11-15T07:30:40;1.70;99.90
22145;DHT22;11238;48.730;11.566;2022-11-15T07:33:25;1.80;99.90
22145;DHT22;11238;48.730;11.566;2022-11-15T07:36:09;1.90;99.90
22145;DHT22;11238;48.730;11.566;2022-11-15T07:38:54;2.00;99.90
22145;DHT22;11238;48.730;11.566;2022-11-15T07:41:38;2.10;99.90
22145;DHT22;11238;48.730;11.566;2022-11-15T07:44:23;2.20;99.90
22145;DHT22;11238;48.730;11.566;2022-11-15T07:47:09;2.30;99.90
22145;DHT22;11238;48.730;11.566;2022-11-15T07:49:53;2.30;99.90
22145;DHT22;11238;48.730;11.566;2022-11-15T07:52:38;2.30;99.90
22145;DHT22;11238;48.730;11.566;2022-11-15T07:55:23;2.40;99.90
22145;DHT22;11238;48.730;11.566;2022-11-15T07:58:11;2.20;99.90
22145;DHT22;11238;48.730;11.566;2022-11-15T08:00:56;2.10;99.90
22145;DHT22;11238;48.730;11.566;2022-11-15T08:03:41;2.20;99.90
22145;DHT22;11238;48.730;11.566;2022-11-15T08:06:25;2.30;99.90
22145;DHT22;11238;48.730;11.566;2022-11-15T08:09:09;2.50;99.90
22145;DHT22;11238;48.730;11.566;2022-11-15T08:11:54;2.70;99.90
22145;DHT22;11238;48.730;11.566;2022-11-15T08:14:38;2.90;99.90
22145;DHT22;11238;48.730;11.566;2022-11-15T08:17:23;3.20;99.90
22145;DHT22;11238;48.730;11.566;2022-11-15T08:20:08;3.50;99.90
22145;DHT22;11238;48.730;11.566;2022-11-15T08:22:53;3.80;99.90
22145;DHT22;11238;48.730;11.566;2022-11-15T08:25:38;3.90;99.90
22145;DHT22;11238;48.730;11.566;2022-11-15T08:28:23;4.10;99.90
22145;DHT22;11238;48.730;11.566;2022-11-15T08:31:13;4.30;99.90
22145;DHT22;11238;48.730;11.566;2022-11-15T08:33:58;4.50;99.90
22145;DHT22;11238;48.730;11.566;2022-11-15T08:36:43;4.70;99.90
22145;DHT22;11238;48.730;11.566;2022-11-15T08:39:28;4.90;99.90
22145;DHT22;11238;48.730;11.566;2022-11-15T08:42:13;5.10;99.90
22145;DHT22;11238;48.730;11.566;2022-11-15T08:44:59;5.30;99.90
22145;DHT22;11238;48.730;11.566;2022-11-15T08:47:43;5.40;99.90
22145;DHT22;11238;48.730;11.566;2022-11-15T08:50:29;5.70;99.90
22145;DHT22;11238;48.730;11.566;2022-11-15T08:53:13;5.90;99.90
22145;DHT22;11238;48.730;11.566;2022-11-15T08:55:57;6.20;99.90
22145;DHT22;11238;48.730;11.566;2022-11-15T08:58:42;6.80;99.90
22145;DHT22;11238;48.730;11.566;2022-11-15T09:01:26;7.20;99.90
22145;DHT22;11238;48.730;11.566;2022-11-15T09:04:11;7.60;99.90
22145;DHT22;11238;48.730;11.566;2022-11-15T09:06:56;8.50;99.90
22145;DHT22;11238;48.730;11.566;2022-11-15T09:09:40;9.60;99.90
22145;DHT22;11238;48.730;11.566;2022-11-15T09:12:25;10.50;99.90
22145;DHT22;11238;48.730;11.566;2022-11-15T09:15:10;11.50;99.90
22145;DHT22;11238;48.730;11.566;2022-11-15T09:17:58;12.80;99.90
22145;DHT22;11238;48.730;11.566;2022-11-15T09:20:43;13.90;99.90
22145;DHT22;11238;48.730;11.566;2022-11-15T09:23:28;15.00;98.30
22145;DHT22;11238;48.730;11.566;2022-11-15T09:26:13;16.10;94.30
22145;DHT22;11238;48.730;11.566;2022-11-15T09:28:57;17.10;92.40
22145;DHT22;11238;48.730;11.566;2022-11-15T09:31:42;18.10;88.60
22145;DHT22;11238;48.730;11.566;2022-11-15T09:34:26;18.70;84.90
22145;DHT22;11238;48.730;11.566;2022-11-15T09:37:11;19.30;79.40
22145;DHT22;11238;48.730;11.566;2022-11-15T09:39:56;20.10;76.90
22145;DHT22;11238;48.730;11.566;2022-11-15T09:46:04;20.30;73.10
22145;DHT22;11238;48.730;11.566;2022-11-15T09:49:01;19.10;74.80
22145;DHT22;11238;48.730;11.566;2022-11-15T09:51:53;19.00;76.40
22145;DHT22;11238;48.730;11.566;2022-11-15T09:54:32;18.70;74.80
22145;DHT22;11238;48.730;11.566;2022-11-15T09:57:11;18.60;77.70
22145;DHT22;11238;48.730;11.566;2022-11-15T10:05:24;18.20;77.70
22145;DHT22;11238;48.730;11.566;2022-11-15T10:11:02;18.20;78.80
22145;DHT22;11238;48.730;11.566;2022-11-15T10:13:32;18.30;79.30
22145;DHT22;11238;48.730;11.566;2022-11-15T10:24:46;17.30;81.30
22145;DHT22;11238;48.730;11.566;2022-11-15T10:27:17;17.20;82.40
22145;DHT22;11238;48.730;11.566;2022-11-15T10:29:49;17.00;82.30
22145;DHT22;11238;48.730;11.566;2022-11-15T10:32:20;16.70;84.00
22145;DHT22;11238;48.730;11.566;2022-11-15T10:34:48;16.70;84.80
22145;DHT22;11238;48.730;11.566;2022-11-15T10:37:15;16.60;84.70
22145;DHT22;11238;48.730;11.566;2022-11-15T10:40:22;16.40;85.00
22145;DHT22;11238;48.730;11.566;2022-11-15T10:45:33;15.90;87.00
22145;DHT22;11238;48.730;11.566;2022-11-15T10:48:20;15.60;88.50
22145;DHT22;11238;48.730;11.566;2022-11-15T10:50:48;15.30;90.00
22145;DHT22;11238;48.730;11.566;2022-11-15T10:53:31;15.20;90.00
22145;DHT22;11238;48.730;11.566;2022-11-15T10:56:03;15.00;90.30
22145;DHT22;11238;48.730;11.566;2022-11-15T10:58:37;14.80;90.70
22145;DHT22;11238;48.730;11.566;2022-11-15T11:01:16;14.50;90.60
22145;DHT22;11238;48.730;11.566;2022-11-15T11:03:44;14.30;91.40
22145;DHT22;11238;48.730;11.566;2022-11-15T11:06:16;14.20;91.80
22145;DHT22;11238;48.730;11.566;2022-11-15T11:09:00;14.00;92.30
22145;DHT22;11238;48.730;11.566;2022-11-15T11:11:49;14.00;92.30
22145;DHT22;11238;48.730;11.566;2022-11-15T11:14:30;14.00;92.60
22145;DHT22;11238;48.730;11.566;2022-11-15T11:22:40;14.00;92.60
22145;DHT22;11238;48.730;11.566;2022-11-15T11:33:17;14.20;93.50
22145;DHT22;11238;48.730;11.566;2022-11-15T11:36:10;14.20;93.30
22145;DHT22;11238;48.730;11.566;2022-11-15T11:38:51;14.20;93.10
22145;DHT22;11238;48.730;11.566;2022-11-15T11:41:30;14.40;93.60
22145;DHT22;11238;48.730;11.566;2022-11-15T11:46:54;14.40;92.90
22145;DHT22;11238;48.730;11.566;2022-11-15T11:49:28;14.50;92.90
22145;DHT22;11238;48.730;11.566;2022-11-15T11:52:05;14.60;93.10
22145;DHT22;11238;48.730;11.566;2022-11-15T11:55:02;14.60;92.40
22145;DHT22;11238;48.730;11.566;2022-11-15T12:02:42;14.90;93.10
22145;DHT22;11238;48.730;11.566;2022-11-15T12:05:26;15.00;93.00
22145;DHT22;11238;48.730;11.566;2022-11-15T12:07:56;15.10;92.60
22145;DHT22;11238;48.730;11.566;2022-11-15T12:10:30;15.10;92.70
22145;DHT22;11238;48.730;11.566;2022-11-15T12:15:31;15.20;92.90
22145;DHT22;11238;48.730;11.566;2022-11-15T12:18:00;15.20;92.50
22145;DHT22;11238;48.730;11.566;2022-11-15T12:20:29;15.30;92.80
22145;DHT22;11238;48.730;11.566;2022-11-15T12:23:04;15.40;93.20
22145;DHT22;11238;48.730;11.566;2022-11-15T12:25:54;15.30;91.80
22145;DHT22;11238;48.730;11.566;2022-11-15T12:31:16;15.40;91.80
22145;DHT22;11238;48.730;11.566;2022-11-15T12:33:46;15.50;92.50
22145;DHT22;11238;48.730;11.566;2022-11-15T12:41:16;15.70;93.00
22145;DHT22;11238;48.730;11.566;2022-11-15T12:43:44;15.90;93.00
22145;DHT22;11238;48.730;11.566;2022-11-15T12:46:23;15.90;93.10
22145;DHT22;11238;48.730;11.566;2022-11-15T13:02:20;15.70;92.70
22145;DHT22;11238;48.730;11.566;2022-11-15T13:04:47;15.80;92.70
22145;DHT22;11238;48.730;11.566;2022-11-15T13:17:51;16.00;92.20
22145;DHT22;11238;48.730;11.566;2022-11-15T13:20:23;16.00;92.30
22145;DHT22;11238;48.730;11.566;2022-11-15T13:23:11;16.10;91.90
22145;DHT22;11238;48.730;11.566;2022-11-15T13:33:45;15.70;92.20
22145;DHT22;11238;48.730;11.566;2022-11-15T13:36:25;15.60;92.40
22145;DHT22;11238;48.730;11.566;2022-11-15T13:39:06;15.50;92.10
22145;DHT22;11238;48.730;11.566;2022-11-15T13:41:50;15.50;92.20
22145;DHT22;11238;48.730;11.566;2022-11-15T13:44:22;15.20;92.70
22145;DHT22;11238;48.730;11.566;2022-11-15T13:46:48;15.00;93.60
22145;DHT22;11238;48.730;11.566;2022-11-15T13:49:14;15.00;94.20
22145;DHT22;11238;48.730;11.566;2022-11-15T13:51:51;14.80;94.00
22145;DHT22;11238;48.730;11.566;2022-11-15T13:54:24;14.80;94.70
22145;DHT22;11238;48.730;11.566;2022-11-15T13:56:58;14.70;95.00
22145;DHT22;11238;48.730;11.566;2022-11-15T13:59:31;14.60;94.80
22145;DHT22;11238;48.730;11.566;2022-11-15T14:02:02;14.60;94.90
22145;DHT22;11238;48.730;11.566;2022-11-15T14:04:35;14.40;95.70
22145;DHT22;11238;48.730;11.566;2022-11-15T14:07:01;14.30;95.70
22145;DHT22;11238;48.730;11.566;2022-11-15T14:12:28;14.20;95.30
22145;DHT22;11238;48.730;11.566;2022-11-15T14:14:56;14.10;95.80
22145;DHT22;11238;48.730;11.566;2022-11-15T14:19:54;14.00;96.10
22145;DHT22;11238;48.730;11.566;2022-11-15T14:22:24;14.00;96.00
22145;DHT22;11238;48.730;11.566;2022-11-15T14:25:17;13.90;96.30
22145;DHT22;11238;48.730;11.566;2022-11-15T14:28:12;14.00;96.60
22145;DHT22;11238;48.730;11.566;2022-11-15T14:30:39;13.90;96.20
22145;DHT22;11238;48.730;11.566;2022-11-15T14:33:24;13.80;96.30
22145;DHT22;11238;48.730;11.566;2022-11-15T14:35:51;13.80;96.20
22145;DHT22;11238;48.730;11.566;2022-11-15T14:38:18;13.60;96.40
22145;DHT22;11238;48.730;11.566;2022-11-15T14:40:44;13.60;96.40
22145;DHT22;11238;48.730;11.566;2022-11-15T14:43:11;13.60;96.50
22145;DHT22;11238;48.730;11.566;2022-11-15T14:45:38;13.50;96.60
22145;DHT22;11238;48.730;11.566;2022-11-15T14:48:04;13.30;96.90
22145;DHT22;11238;48.730;11.566;2022-11-15T14:50:31;13.30;97.70
22145;DHT22;11238;48.730;11.566;2022-11-15T14:52:58;13.30;98.00
22145;DHT22;11238;48.730;11.566;2022-11-15T14:55:30;13.20;97.70
22145;DHT22;11238;48.730;11.566;2022-11-15T14:57:58;13.20;97.90
22145;DHT22;11238;48.730;11.566;2022-11-15T15:00:25;13.20;98.00
22145;DHT22;11238;48.730;11.566;2022-11-15T15:02:53;13.10;98.00
22145;DHT22;11238;48.730;11.566;2022-11-15T15:05:25;12.90;98.30
22145;DHT22;11238;48.730;11.566;2022-11-15T15:07:52;12.70;98.60
22145;DHT22;11238;48.730;11.566;2022-11-15T15:10:18;12.70;99.00
22145;DHT22;11238;48.730;11.566;2022-11-15T15:12:44;12.60;98.80
22145;DHT22;11238;48.730;11.566;2022-11-15T15:15:15;12.40;99.10
22145;DHT22;11238;48.730;11.566;2022-11-15T15:17:41;12.30;99.10
22145;DHT22;11238;48.730;11.566;2022-11-15T15:20:09;12.30;99.50
22145;DHT22;11238;48.730;11.566;2022-11-15T15:22:35;12.20;99.40
22145;DHT22;11238;48.730;11.566;2022-11-15T15:25:01;12.10;99.60
22145;DHT22;11238;48.730;11.566;2022-11-15T15:27:28;12.00;99.70
22145;DHT22;11238;48.730;11.566;2022-11-15T15:29:53;12.00;99.90
22145;DHT22;11238;48.730;11.566;2022-11-15T15:32:19;11.90;99.90
22145;DHT22;11238;48.730;11.566;2022-11-15T15:34:44;11.90;99.90
22145;DHT22;11238;48.730;11.566;2022-11-15T15:37:24;11.80;99.90
22145;DHT22;11238;48.730;11.566;2022-11-15T15:39:52;11.70;99.90
22145;DHT22;11238;48.730;11.566;2022-11-15T15:42:18;11.70;99.90
22145;DHT22;11238;48.730;11.566;2022-11-15T15:44:45;11.60;99.90
22145;DHT22;11238;48.730;11.566;2022-11-15T15:47:21;11.40;99.90
22145;DHT22;11238;48.730;11.566;2022-11-15T15:49:48;11.40;99.90
22145;DHT22;11238;48.730;11.566;2022-11-15T15:52:14;11.30;99.90
22145;DHT22;11238;48.730;11.566;2022-11-15T15:54:40;11.20;99.90
22145;DHT22;11238;48.730;11.566;2022-11-15T15:57:07;11.00;99.90
22145;DHT22;11238;48.730;11.566;2022-11-15T15:59:33;10.90;99.90
22145;DHT22;11238;48.730;11.566;2022-11-15T16:01:59;10.80;99.90
22145;DHT22;11238;48.730;11.566;2022-11-15T16:04:25;10.70;99.90
22145;DHT22;11238;48.730;11.566;2022-11-15T16:06:51;10.70;99.90
22145;DHT22;11238;48.730;11.566;2022-11-15T16:09:20;10.60;99.90
22145;DHT22;11238;48.730;11.566;2022-11-15T16:12:06;10.60;99.90
22145;DHT22;11238;48.730;11.566;2022-11-15T16:14:32;10.60;99.90
22145;DHT22;11238;48.730;11.566;2022-11-15T16:16:57;10.50;99.90
22145;DHT22;11238;48.730;11.566;2022-11-15T16:19:23;10.30;99.90
22145;DHT22;11238;48.730;11.566;2022-11-15T16:21:50;10.30;99.90
22145;DHT22;11238;48.730;11.566;2022-11-15T16:24:18;10.20;99.90
22145;DHT22;11238;48.730;11.566;2022-11-15T16:26:44;10.10;99.90
22145;DHT22;11238;48.730;11.566;2022-11-15T16:29:10;9.90;99.90
22145;DHT22;11238;48.730;11.566;2022-11-15T16:31:36;9.90;99.90
22145;DHT22;11238;48.730;11.566;2022-11-15T16:34:02;9.80;99.90
22145;DHT22;11238;48.730;11.566;2022-11-15T16:36:31;9.80;99.90
22145;DHT22;11238;48.730;11.566;2022-11-15T16:38:58;9.80;99.90
22145;DHT22;11238;48.730;11.566;2022-11-15T16:41:46;9.70;99.90
22145;DHT22;11238;48.730;11.566;2022-11-15T16:44:13;9.70;99.90
22145;DHT22;11238;48.730;11.566;2022-11-15T16:46:41;9.70;99.90
22145;DHT22;11238;48.730;11.566;2022-11-15T16:49:14;9.70;99.90
22145;DHT22;11238;48.730;11.566;2022-11-15T16:51:41;9.60;99.90
22145;DHT22;11238;48.730;11.566;2022-11-15T16:54:07;9.50;99.90
22145;DHT22;11238;48.730;11.566;2022-11-15T16:56:33;9.40;99.90
22145;DHT22;11238;48.730;11.566;2022-11-15T16:59:00;9.40;99.90
22145;DHT22;11238;48.730;11.566;2022-11-15T17:01:34;9.30;99.90
22145;DHT22;11238;48.730;11.566;2022-11-15T17:04:00;9.30;99.90
22145;DHT22;11238;48.730;11.566;2022-11-15T17:06:38;9.30;99.90
22145;DHT22;11238;48.730;11.566;2022-11-15T17:09:05;9.20;99.90
22145;DHT22;11238;48.730;11.566;2022-11-15T17:11:31;9.20;99.90
22145;DHT22;11238;48.730;11.566;2022-11-15T17:13:58;9.20;99.90
22145;DHT22;11238;48.730;11.566;2022-11-15T17:16:24;9.20;99.90
22145;DHT22;11238;48.730;11.566;2022-11-15T17:18:51;9.10;99.90
22145;DHT22;11238;48.730;11.566;2022-11-15T17:21:19;9.10;99.90
22145;DHT22;11238;48.730;11.566;2022-11-15T17:23:45;9.00;99.90
22145;DHT22;11238;48.730;11.566;2022-11-15T17:26:13;9.00;99.90
22145;DHT22;11238;48.730;11.566;2022-11-15T17:28:39;9.00;99.90
22145;DHT22;11238;48.730;11.566;2022-11-15T17:31:09;9.00;99.90
22145;DHT22;11238;48.730;11.566;2022-11-15T17:33:36;9.00;99.90
22145;DHT22;11238;48.730;11.566;2022-11-15T17:36:06;9.00;99.90
22145;DHT22;11238;48.730;11.566;2022-11-15T17:38:32;9.00;99.90
22145;DHT22;11238;48.730;11.566;2022-11-15T17:41:11;8.90;99.90
22145;DHT22;11238;48.730;11.566;2022-11-15T17:43:38;8.80;99.90
22145;DHT22;11238;48.730;11.566;2022-11-15T17:46:09;8.80;99.90
22145;DHT22;11238;48.730;11.566;2022-11-15T17:48:35;8.70;99.90
22145;DHT22;11238;48.730;11.566;2022-11-15T17:51:03;8.70;99.90
22145;DHT22;11238;48.730;11.566;2022-11-15T17:53:34;8.60;99.90
22145;DHT22;11238;48.730;11.566;2022-11-15T17:56:04;8.60;99.90
22145;DHT22;11238;48.730;11.566;2022-11-15T17:58:31;8.50;99.90
22145;DHT22;11238;48.730;11.566;2022-11-15T18:01:21;8.50;99.90
22145;DHT22;11238;48.730;11.566;2022-11-15T18:03:47;8.40;99.90
22145;DHT22;11238;48.730;11.566;2022-11-15T18:06:13;8.40;99.90
22145;DHT22;11238;48.730;11.566;2022-11-15T18:08:41;8.40;99.90
22145;DHT22;11238;48.730;11.566;2022-11-15T18:11:13;8.40;99.90
22145;DHT22;11238;48.730;11.566;2022-11-15T18:13:42;8.30;99.90
22145;DHT22;11238;48.730;11.566;2022-11-15T18:16:14;8.20;99.90
22145;DHT22;11238;48.730;11.566;2022-11-15T18:18:40;8.20;99.90
22145;DHT22;11238;48.730;11.566;2022-11-15T18:21:17;8.20;99.90
22145;DHT22;11238;48.730;11.566;2022-11-15T18:23:44;8.20;99.90
22145;DHT22;11238;48.730;11.566;2022-11-15T18:26:12;8.10;99.90
22145;DHT22;11238;48.730;11.566;2022-11-15T18:28:41;8.10;99.90
22145;DHT22;11238;48.730;11.566;2022-11-15T18:31:21;8.10;99.90
22145;DHT22;11238;48.730;11.566;2022-11-15T18:33:48;8.10;99.90
22145;DHT22;11238;48.730;11.566;2022-11-15T18:36:19;8.10;99.90
22145;DHT22;11238;48.730;11.566;2022-11-15T18:38:46;8.10;99.90
22145;DHT22;11238;48.730;11.566;2022-11-15T18:41:14;8.10;99.90
22145;DHT22;11238;48.730;11.566;2022-11-15T18:43:43;8.20;99.90
22145;DHT22;11238;48.730;11.566;2022-11-15T18:46:10;8.20;99.90
22145;DHT22;11238;48.730;11.566;2022-11-15T18:48:38;8.20;99.90
22145;DHT22;11238;48.730;11.566;2022-11-15T18:51:10;8.10;99.90
22145;DHT22;11238;48.730;11.566;2022-11-15T18:53:37;8.10;99.90